createdAt,value
2023-03-22T00:01:23.914Z,100.00
2023-03-22T00:03:52.544Z,100.00
2023-03-22T00:06:20.695Z,100.00
2023-03-22T00:08:51.332Z,100.00
2023-03-22T00:11:22.546Z,100.00
2023-03-22T00:13:52.488Z,100.00
2023-03-22T00:16:21.720Z,100.00
2023-03-22T00:18:50.195Z,100.00
2023-03-22T00:21:18.387Z,100.00
2023-03-22T00:23:46.322Z,100.00
2023-03-22T00:26:15.010Z,100.00
2023-03-22T00:28:43.823Z,100.00
2023-03-22T00:31:11.943Z,100.00
2023-03-22T00:33:39.645Z,100.00
2023-03-22T00:36:10.785Z,100.00
2023-03-22T00:38:43.810Z,100.00
2023-03-22T00:41:17.920Z,100.00
2023-03-22T00:43:46.552Z,100.00
2023-03-22T00:46:15.895Z,100.00
2023-03-22T00:48:43.842Z,100.00
2023-03-22T00:51:12.870Z,100.00
2023-03-22T00:53:43.226Z,100.00
2023-03-22T00:56:15.874Z,100.00
2023-03-22T00:58:56.053Z,100.00
2023-03-22T01:01:24.242Z,100.00
2023-03-22T01:03:51.755Z,100.00
2023-03-22T01:06:19.899Z,100.00
2023-03-22T01:08:50.884Z,100.00
2023-03-22T01:11:18.929Z,100.00
2023-03-22T01:13:48.059Z,100.00
2023-03-22T01:16:16.592Z,100.00
2023-03-22T01:18:44.600Z,100.00
2023-03-22T01:21:13.019Z,100.00
2023-03-22T01:23:41.051Z,100.00
2023-03-22T01:26:09.001Z,100.00
2023-03-22T01:28:37.441Z,100.00
2023-03-22T01:31:05.749Z,100.00
2023-03-22T01:33:33.374Z,100.00
2023-03-22T01:36:01.235Z,100.00
2023-03-22T01:38:29.755Z,100.00
2023-03-22T01:41:00.121Z,100.00
2023-03-22T01:43:30.565Z,100.00
2023-03-22T01:45:59.604Z,100.00
2023-03-22T01:48:34.169Z,100.00
2023-03-22T01:51:10.348Z,100.00
2023-03-22T01:54:12.689Z,100.00
2023-03-22T01:56:42.140Z,100.00
2023-03-22T01:59:16.146Z,100.00
2023-03-22T02:02:05.825Z,100.00
2023-03-22T02:04:38.928Z,100.00
2023-03-22T02:07:15.279Z,100.00
2023-03-22T02:09:46.070Z,100.00
2023-03-22T02:13:00.603Z,100.00
2023-03-22T02:16:00.063Z,100.00
2023-03-22T02:19:18.616Z,100.00
2023-03-22T02:22:04.285Z,100.00
2023-03-22T02:25:06.642Z,100.00
2023-03-22T02:27:52.274Z,100.00
2023-03-22T02:30:41.456Z,100.00
2023-03-22T02:33:18.400Z,100.00
2023-03-22T02:36:07.873Z,100.00
2023-03-22T02:39:16.379Z,100.00
2023-03-22T02:42:15.612Z,100.00
2023-03-22T02:45:06.075Z,100.00
2023-03-22T02:47:49.800Z,100.00
2023-03-22T02:50:35.443Z,100.00
2023-03-22T02:53:24.694Z,100.00
2023-03-22T02:56:00.638Z,100.00
2023-03-22T02:58:45.632Z,100.00
2023-03-22T03:01:25.293Z,100.00
2023-03-22T03:04:01.103Z,100.00
2023-03-22T03:06:33.449Z,100.00
2023-03-22T03:09:04.928Z,100.00
2023-03-22T03:11:33.183Z,100.00
2023-03-22T03:14:02.072Z,100.00
2023-03-22T03:16:34.786Z,100.00
2023-03-22T03:19:21.199Z,100.00
2023-03-22T03:22:12.510Z,100.00
2023-03-22T03:24:55.345Z,100.00
2023-03-22T03:27:33.962Z,100.00
2023-03-22T03:30:12.432Z,100.00
2023-03-22T03:32:56.490Z,100.00
2023-03-22T03:35:40.858Z,100.00
2023-03-22T03:38:20.448Z,100.00
2023-03-22T03:40:52.217Z,100.00
2023-03-22T03:43:23.564Z,100.00
2023-03-22T03:45:52.652Z,100.00
2023-03-22T03:48:28.557Z,100.00
2023-03-22T03:50:58.032Z,100.00
2023-03-22T03:53:25.928Z,100.00
2023-03-22T03:55:54.049Z,100.00
2023-03-22T03:58:21.972Z,100.00
2023-03-22T04:00:51.001Z,100.00
2023-03-22T04:03:34.328Z,100.00
2023-03-22T04:06:05.078Z,100.00
2023-03-22T04:08:37.660Z,100.00
2023-03-22T04:11:06.858Z,100.00
2023-03-22T04:13:35.193Z,100.00
2023-03-22T04:16:07.587Z,100.00
2023-03-22T04:18:38.849Z,100.00
2023-03-22T04:21:12.127Z,100.00
2023-03-22T04:24:09.710Z,100.00
2023-03-22T04:26:42.163Z,100.00
2023-03-22T04:29:23.000Z,100.00
2023-03-22T04:31:54.836Z,100.00
2023-03-22T04:34:31.571Z,100.00
2023-03-22T04:37:04.208Z,100.00
2023-03-22T04:39:37.965Z,100.00
2023-03-22T04:42:25.800Z,100.00
2023-03-22T04:45:22.536Z,100.00
2023-03-22T04:47:57.207Z,100.00
2023-03-22T04:50:25.074Z,100.00
2023-03-22T04:53:00.110Z,100.00
2023-03-22T04:55:30.064Z,100.00
2023-03-22T04:57:57.946Z,100.00
2023-03-22T05:00:26.171Z,100.00
2023-03-22T05:02:54.810Z,100.00
2023-03-22T05:05:31.275Z,100.00
2023-03-22T05:07:59.492Z,100.00
2023-03-22T05:10:27.608Z,100.00
2023-03-22T05:12:58.271Z,100.00
2023-03-22T05:15:32.638Z,100.00
2023-03-22T05:18:02.162Z,100.00
2023-03-22T05:20:29.844Z,100.00
2023-03-22T05:23:10.186Z,100.00
2023-03-22T05:25:39.398Z,100.00
2023-03-22T05:28:07.500Z,100.00
2023-03-22T05:30:43.049Z,100.00
2023-03-22T05:33:23.404Z,100.00
2023-03-22T05:35:54.951Z,100.00
2023-03-22T05:38:24.651Z,100.00
2023-03-22T05:40:54.989Z,100.00
2023-03-22T05:43:22.958Z,100.00
2023-03-22T05:45:51.937Z,100.00
2023-03-22T05:48:52.076Z,100.00
2023-03-22T05:51:19.829Z,100.00
2023-03-22T05:53:53.430Z,100.00
2023-03-22T05:56:25.321Z,100.00
2023-03-22T05:59:01.978Z,100.00
2023-03-22T06:01:29.605Z,100.00
2023-03-22T06:04:14.001Z,100.00
2023-03-22T06:07:01.850Z,100.00
2023-03-22T06:09:46.332Z,98.78
2023-03-22T06:12:22.523Z,97.90
2023-03-22T06:14:53.532Z,94.74
2023-03-22T06:17:36.576Z,94.47
2023-03-22T06:20:11.127Z,93.72
2023-03-22T06:22:41.224Z,91.73
2023-03-22T06:25:10.974Z,89.40
2023-03-22T06:27:43.004Z,87.66
2023-03-22T06:30:11.487Z,85.91
2023-03-22T06:33:00.629Z,83.50
2023-03-22T06:35:29.851Z,81.26
2023-03-22T06:37:57.741Z,79.00
2023-03-22T06:40:25.621Z,80.08
2023-03-22T06:42:54.447Z,81.18
2023-03-22T06:45:23.684Z,79.10
2023-03-22T06:47:51.470Z,76.04
2023-03-22T06:50:34.048Z,72.65
2023-03-22T06:53:06.923Z,70.88
2023-03-22T06:55:35.528Z,69.20
2023-03-22T06:58:12.197Z,68.47
2023-03-22T07:00:40.410Z,67.75
2023-03-22T07:03:09.498Z,68.28
2023-03-22T07:05:44.572Z,65.98
2023-03-22T07:08:12.736Z,64.18
2023-03-22T07:10:51.183Z,63.58
2023-03-22T07:13:21.658Z,62.00
2023-03-22T07:16:02.122Z,60.79
2023-03-22T07:18:50.413Z,60.23
2023-03-22T07:21:18.403Z,60.01
2023-03-22T07:23:51.153Z,61.00
2023-03-22T07:26:21.179Z,60.37
2023-03-22T07:28:50.753Z,60.69
2023-03-22T07:31:21.371Z,60.33
2023-03-22T07:33:57.276Z,58.99
2023-03-22T07:36:27.890Z,58.13
2023-03-22T07:38:56.339Z,57.66
2023-03-22T07:41:31.233Z,55.89
2023-03-22T07:44:25.192Z,54.38
2023-03-22T07:47:13.862Z,53.97
2023-03-22T07:49:49.317Z,53.18
2023-03-22T07:52:21.317Z,50.61
2023-03-22T07:54:49.624Z,47.37
2023-03-22T07:57:18.253Z,45.65
2023-03-22T07:59:51.332Z,43.34
2023-03-22T08:02:20.158Z,42.45
2023-03-22T08:04:56.124Z,41.40
2023-03-22T08:07:37.573Z,40.71
2023-03-22T08:10:06.051Z,39.13
2023-03-22T08:12:35.555Z,38.00
2023-03-22T08:15:18.483Z,36.81
2023-03-22T08:17:46.357Z,35.95
2023-03-22T08:20:20.902Z,33.86
2023-03-22T08:22:55.634Z,33.31
2023-03-22T08:25:42.692Z,32.47
2023-03-22T08:28:13.239Z,31.79
2023-03-22T08:30:42.083Z,30.63
2023-03-22T08:33:10.039Z,30.99
2023-03-22T08:35:38.311Z,30.54
2023-03-22T08:38:06.883Z,30.53
2023-03-22T08:40:42.576Z,30.03
2023-03-22T08:43:10.590Z,29.77
2023-03-22T08:45:38.752Z,29.75
2023-03-22T08:48:12.325Z,30.04
2023-03-22T08:51:07.121Z,30.39
2023-03-22T08:53:46.203Z,30.31
2023-03-22T08:56:37.418Z,31.13
2023-03-22T08:59:18.641Z,31.91
2023-03-22T09:02:06.210Z,33.42
2023-03-22T09:04:34.267Z,34.84
2023-03-22T09:07:02.958Z,36.61
2023-03-22T09:09:31.480Z,37.96
2023-03-22T09:11:59.290Z,38.48
2023-03-22T09:14:27.264Z,39.62
2023-03-22T09:16:55.627Z,40.13
2023-03-22T09:19:23.557Z,40.99
2023-03-22T09:21:51.916Z,41.54
2023-03-22T09:24:31.390Z,42.43
2023-03-22T09:27:03.430Z,42.75
2023-03-22T09:29:31.714Z,43.21
2023-03-22T09:32:02.480Z,43.97
2023-03-22T09:34:34.357Z,44.44
2023-03-22T09:37:02.878Z,45.37
2023-03-22T09:39:40.982Z,46.41
2023-03-22T09:42:45.835Z,46.80
2023-03-22T09:45:25.087Z,47.81
2023-03-22T09:47:56.240Z,49.38
2023-03-22T09:50:30.795Z,50.16
2023-03-22T09:52:59.278Z,50.95
2023-03-22T09:55:53.484Z,51.82
2023-03-22T09:58:49.103Z,52.12
2023-03-22T10:01:29.087Z,51.71
2023-03-22T10:04:15.671Z,51.80
2023-03-22T10:06:50.663Z,52.32
2023-03-22T10:09:31.212Z,52.24
2023-03-22T10:12:18.217Z,52.63
2023-03-22T10:15:00.389Z,52.75
2023-03-22T10:17:30.665Z,52.33
2023-03-22T10:20:23.562Z,53.00
2023-03-22T10:22:53.434Z,52.88
2023-03-22T10:25:27.521Z,52.97
2023-03-22T10:27:57.237Z,53.06
2023-03-22T10:30:30.244Z,53.05
2023-03-22T10:33:02.192Z,53.63
2023-03-22T10:35:31.720Z,53.44
2023-03-22T10:38:04.565Z,53.31
2023-03-22T10:40:34.419Z,53.48
2023-03-22T10:43:11.618Z,52.89
2023-03-22T10:45:40.082Z,52.73
2023-03-22T10:48:12.561Z,53.28
2023-03-22T10:50:44.484Z,52.92
2023-03-22T10:53:28.299Z,52.99
2023-03-22T10:55:56.591Z,53.11
2023-03-22T10:58:30.859Z,53.28
2023-03-22T11:01:00.088Z,54.00
2023-03-22T11:03:36.440Z,53.40
2023-03-22T11:06:11.054Z,53.32
2023-03-22T11:08:46.940Z,53.46
2023-03-22T11:11:30.816Z,53.31
2023-03-22T11:14:26.994Z,53.34
2023-03-22T11:16:57.161Z,54.10
2023-03-22T11:19:38.348Z,54.34
2023-03-22T11:22:25.208Z,54.46
2023-03-22T11:24:55.456Z,54.79
2023-03-22T11:27:29.267Z,54.02
2023-03-22T11:30:20.280Z,53.27
2023-03-22T11:32:48.500Z,53.20
2023-03-22T11:35:21.187Z,52.94
2023-03-22T11:37:51.280Z,52.86
2023-03-22T11:40:22.227Z,53.28
2023-03-22T11:42:55.426Z,53.51
2023-03-22T11:45:36.670Z,53.57
2023-03-22T11:48:16.403Z,54.48
2023-03-22T11:50:46.346Z,55.01
2023-03-22T11:53:21.440Z,55.46
2023-03-22T11:55:51.576Z,55.74
2023-03-22T11:58:44.733Z,55.37
2023-03-22T12:01:40.880Z,55.89
2023-03-22T12:04:13.997Z,55.31
2023-03-22T12:06:43.072Z,54.59
2023-03-22T12:09:54.563Z,54.05
2023-03-22T12:12:35.825Z,53.33
2023-03-22T12:15:05.921Z,53.01
2023-03-22T12:17:48.834Z,52.25
2023-03-22T12:20:48.552Z,51.84
2023-03-22T12:23:19.391Z,51.68
2023-03-22T12:25:55.238Z,51.69
2023-03-22T12:28:55.685Z,51.00
2023-03-22T12:31:29.892Z,51.74
2023-03-22T12:34:05.362Z,50.85
2023-03-22T12:36:42.941Z,50.97
2023-03-22T12:39:25.427Z,50.94
2023-03-22T12:41:57.304Z,51.18
2023-03-22T12:44:38.034Z,51.35
2023-03-22T12:47:16.569Z,51.74
2023-03-22T12:49:52.242Z,51.81
2023-03-22T12:52:45.340Z,51.70
2023-03-22T12:55:27.815Z,51.78
2023-03-22T12:57:56.156Z,51.43
2023-03-22T13:00:40.913Z,51.15
2023-03-22T13:03:28.798Z,51.00
2023-03-22T13:06:04.868Z,50.91
2023-03-22T13:09:09.903Z,51.39
2023-03-22T13:11:37.778Z,51.11
2023-03-22T13:14:05.727Z,51.05
2023-03-22T13:16:49.255Z,51.04
2023-03-22T13:19:37.648Z,51.22
2023-03-22T13:22:38.041Z,51.07
2023-03-22T13:25:08.659Z,51.43
2023-03-22T13:27:52.988Z,51.96
2023-03-22T13:30:20.499Z,52.19
2023-03-22T13:32:56.602Z,52.44
2023-03-22T13:35:27.949Z,52.84
2023-03-22T13:38:03.115Z,52.69
2023-03-22T13:40:36.548Z,52.76
2023-03-22T13:43:24.674Z,52.70
2023-03-22T13:46:12.435Z,52.68
2023-03-22T13:48:42.466Z,52.80
2023-03-22T13:51:25.600Z,53.29
2023-03-22T13:54:24.271Z,53.31
2023-03-22T13:56:58.476Z,53.46
2023-03-22T13:59:27.102Z,54.00
2023-03-22T14:02:24.449Z,54.13
2023-03-22T14:05:01.934Z,54.78
2023-03-22T14:07:58.158Z,55.11
2023-03-22T14:10:37.676Z,54.84
2023-03-22T14:13:16.560Z,55.06
2023-03-22T14:15:54.645Z,55.44
2023-03-22T14:18:27.985Z,55.12
2023-03-22T14:21:03.394Z,55.28
